Time;durP1;ratioP1;P1;durP2;ratioP2;P2;SDS_P1;SDS_P2;PMS_P1;PMS_P2;Temp;Humidity;BMP_temperature;BMP_pressure;BME280_temperature;BME280_humidity;BME280_pressure;Samples;Min_cycle;Max_cycle;Signal;HPM_P1;HPM_P2
2021/09/19 00:00:36;;;;;;;5.23;2.97;;;;;;;11.40;89.89;101133.28;5075455;28;20199;-70
2021/09/19 00:03:02;;;;;;;3.80;2.80;;;;;;;11.45;90.02;101136.59;5075642;28;20570;-70
2021/09/19 00:05:27;;;;;;;5.43;3.17;;;;;;;11.37;90.52;101133.44;5075676;28;20167;-70
2021/09/19 00:07:52;;;;;;;6.37;3.97;;;;;;;11.36;89.97;101130.84;5057318;28;20167;-69
2021/09/19 00:10:18;;;;;;;6.40;3.73;;;;;;;11.33;90.47;101137.22;5057501;28;20194;-69
2021/09/19 00:12:44;;;;;;;5.33;3.27;;;;;;;11.39;90.22;101142.25;5057555;28;20198;-70
2021/09/19 00:15:12;;;;;;;8.13;3.13;;;;;;;11.35;90.20;101142.50;5058297;28;20203;-71
2021/09/19 00:17:38;;;;;;;4.53;3.03;;;;;;;11.32;90.31;101142.66;5058104;28;20170;-70
2021/09/19 00:20:03;;;;;;;3.83;3.10;;;;;;;11.30;90.54;101147.22;5076074;28;20341;-70
2021/09/19 00:22:28;;;;;;;7.83;3.13;;;;;;;11.29;91.65;101157.03;5075274;28;20663;-70
2021/09/19 00:24:54;;;;;;;4.07;2.70;;;;;;;11.37;91.10;101156.63;5057374;28;20174;-71
2021/09/19 00:27:20;;;;;;;5.57;3.30;;;;;;;11.31;91.39;101163.16;5075403;28;20179;-71
2021/09/19 00:29:46;;;;;;;5.03;3.27;;;;;;;11.37;91.70;101154.81;5057778;28;20556;-71
2021/09/19 00:32:11;;;;;;;4.80;3.00;;;;;;;11.29;91.95;101146.34;5057172;28;20174;-71
2021/09/19 00:34:36;;;;;;;4.67;2.70;;;;;;;11.30;92.52;101152.56;5075255;28;20203;-71
2021/09/19 00:37:02;;;;;;;4.60;3.07;;;;;;;11.30;92.19;101164.09;5056845;28;20175;-71
2021/09/19 00:39:27;;;;;;;5.13;3.13;;;;;;;11.30;92.33;101156.09;5074869;28;20710;-70
2021/09/19 00:41:52;;;;;;;6.80;3.20;;;;;;;11.33;91.94;101145.25;5056866;28;20167;-71
2021/09/19 00:44:26;;;;;;;4.83;2.97;;;;;;;11.26;91.83;101146.50;5057057;28;20178;-69
2021/09/19 00:46:56;;;;;;;4.13;2.70;;;;;;;11.37;91.28;101136.13;5057277;28;20154;-71
2021/09/19 00:49:23;;;;;;;4.77;3.17;;;;;;;11.38;91.06;101131.63;5056529;28;20568;-70
2021/09/19 00:51:48;;;;;;;5.10;3.03;;;;;;;11.32;91.23;101129.28;5074930;28;20177;-70
2021/09/19 00:54:13;;;;;;;5.90;2.93;;;;;;;11.28;91.08;101131.25;5074412;28;20222;-71
2021/09/19 00:56:40;;;;;;;8.27;2.90;;;;;;;11.30;91.18;101126.69;5057389;28;20175;-70
2021/09/19 00:59:08;;;;;;;6.70;2.60;;;;;;;11.32;91.29;101124.81;5074226;28;20193;-70
2021/09/19 01:01:33;;;;;;;4.67;2.77;;;;;;;11.33;91.07;101123.88;5074549;28;20533;-71
2021/09/19 01:04:01;;;;;;;6.63;2.97;;;;;;;11.26;91.85;101128.66;5056678;28;20171;-71
2021/09/19 01:06:27;;;;;;;6.47;3.13;;;;;;;11.31;91.53;101127.56;5074418;28;20579;-70
2021/09/19 01:08:52;;;;;;;6.93;3.23;;;;;;;11.28;91.47;101131.25;5074840;28;20169;-71
2021/09/19 01:11:20;;;;;;;7.13;3.10;;;;;;;11.27;91.27;101117.03;5056571;28;20178;-70
2021/09/19 01:13:46;;;;;;;5.00;3.00;;;;;;;11.30;91.88;101132.03;5040497;28;20182;-70
2021/09/19 01:16:13;;;;;;;5.47;3.37;;;;;;;11.27;92.11;101132.19;5055947;28;20212;-70
2021/09/19 01:18:40;;;;;;;6.07;3.03;;;;;;;11.20;93.47;101149.50;5074130;28;20652;-70
2021/09/19 01:21:05;;;;;;;7.10;2.70;;;;;;;11.24;93.43;101151.06;5056124;28;20269;-70
2021/09/19 01:23:31;;;;;;;4.07;2.93;;;;;;;11.14;94.59;101161.31;5073780;28;20184;-71
2021/09/19 01:25:57;;;;;;;6.30;3.00;;;;;;;11.06;95.05;101159.97;5073815;28;20159;-71
2021/09/19 01:28:23;;;;;;;6.60;3.17;;;;;;;11.03;95.44;101158.31;5055839;28;20241;-71
2021/09/19 01:30:48;;;;;;;4.83;2.73;;;;;;;11.06;95.16;101154.63;5055726;28;20229;-71
2021/09/19 01:33:13;;;;;;;5.00;2.73;;;;;;;11.01;95.52;101162.88;5074086;28;20175;-70
2021/09/19 01:35:39;;;;;;;8.07;2.97;;;;;;;11.06;95.92;101159.97;5055755;28;20614;-70
2021/09/19 01:38:04;;;;;;;4.30;2.70;;;;;;;11.00;96.11;101161.16;5073354;28;20655;-71
2021/09/19 01:40:30;;;;;;;4.87;3.07;;;;;;;11.04;95.98;101161.88;5055585;28;20190;-70
2021/09/19 01:42:56;;;;;;;4.23;2.93;;;;;;;11.02;95.61;101155.72;5055507;28;20174;-70
2021/09/19 01:45:22;;;;;;;6.43;3.10;;;;;;;11.09;96.15;101159.81;5073539;28;20171;-70
2021/09/19 01:47:47;;;;;;;4.57;3.10;;;;;;;11.07;96.13;101156.38;5055530;28;20175;-70
2021/09/19 01:50:12;;;;;;;4.90;3.20;;;;;;;11.01;96.82;101156.69;5073234;28;20575;-70
2021/09/19 01:52:38;;;;;;;4.87;2.80;;;;;;;11.01;96.70;101159.34;5073354;28;20174;-70
2021/09/19 01:55:04;;;;;;;4.63;2.80;;;;;;;10.94;98.41;101162.31;5055495;28;20233;-70
2021/09/19 01:57:29;;;;;;;5.63;2.87;;;;;;;10.98;98.14;101167.50;5038564;28;20179;-70
2021/09/19 01:59:56;;;;;;;6.90;2.80;;;;;;;10.91;98.61;101161.63;5073011;28;20187;-70
2021/09/19 02:02:22;;;;;;;7.07;3.20;;;;;;;10.77;100.00;101164.94;5055142;28;20198;-71
2021/09/19 02:04:50;;;;;;;4.50;3.37;;;;;;;10.85;99.57;101165.47;5055516;28;20204;-70
2021/09/19 02:07:15;;;;;;;6.33;3.30;;;;;;;10.83;99.55;101159.31;5055106;28;20173;-71
2021/09/19 02:09:40;;;;;;;5.80;2.73;;;;;;;10.82;100.00;101162.94;5072765;28;20282;-70
2021/09/19 02:12:06;;;;;;;6.37;2.87;;;;;;;10.88;99.05;101159.09;5072430;28;20174;-71
2021/09/19 02:14:31;;;;;;;5.53;3.23;;;;;;;10.87;100.00;101160.03;5054949;28;20218;-71
2021/09/19 02:16:57;;;;;;;4.90;2.90;;;;;;;10.85;99.45;101157.44;5055118;28;20171;-71
2021/09/19 02:19:22;;;;;;;6.23;2.97;;;;;;;10.80;99.27;101148.78;5054962;28;20233;-71
2021/09/19 02:21:48;;;;;;;6.13;3.30;;;;;;;10.75;99.64;101152.59;5054929;28;20175;-71
2021/09/19 02:24:13;;;;;;;6.87;3.07;;;;;;;10.79;100.00;101165.75;5072865;28;20167;-71
2021/09/19 02:26:39;;;;;;;4.60;3.10;;;;;;;10.75;100.00;101160.59;5054995;28;20179;-69
2021/09/19 02:29:04;;;;;;;4.53;3.17;;;;;;;10.80;100.00;101155.94;5054798;28;20195;-71
2021/09/19 02:31:31;;;;;;;4.33;3.17;;;;;;;10.78;100.00;101160.47;5072865;28;20591;-70
2021/09/19 02:33:56;;;;;;;7.37;3.43;;;;;;;10.66;100.00;101156.59;5072745;28;20196;-70
2021/09/19 02:36:21;;;;;;;6.73;4.00;;;;;;;10.62;100.00;101155.00;5054769;28;20247;-71
2021/09/19 02:38:47;;;;;;;6.60;3.27;;;;;;;10.73;100.00;101152.69;5054820;28;20591;-70
2021/09/19 02:41:12;;;;;;;6.17;2.90;;;;;;;10.72;100.00;101152.75;5073101;28;20192;-70
2021/09/19 02:43:37;;;;;;;5.63;3.30;;;;;;;10.67;100.00;101147.63;5055129;28;20167;-70
2021/09/19 02:46:02;;;;;;;4.97;3.00;;;;;;;10.61;100.00;101147.94;5054649;28;20171;-70
2021/09/19 02:48:28;;;;;;;4.47;3.10;;;;;;;10.62;100.00;101155.00;5072546;28;20522;-71
2021/09/19 02:50:53;;;;;;;4.03;3.03;;;;;;;10.69;100.00;101155.56;5055961;28;20261;-70
2021/09/19 02:53:18;;;;;;;5.13;3.30;;;;;;;10.65;100.00;101146.84;5056221;28;20175;-70
2021/09/19 02:55:44;;;;;;;6.03;3.00;;;;;;;10.58;100.00;101143.63;5073382;28;20199;-69
2021/09/19 02:58:09;;;;;;;6.10;3.20;;;;;;;10.61;100.00;101147.94;5055176;28;20183;-70
2021/09/19 03:00:35;;;;;;;5.47;3.50;;;;;;;10.61;100.00;101146.13;5054376;28;20214;-70
2021/09/19 03:03:00;;;;;;;5.27;3.10;;;;;;;10.66;100.00;101148.56;5054389;28;20206;-70
2021/09/19 03:05:25;;;;;;;3.57;2.90;;;;;;;10.61;100.00;101154.16;5054335;28;20171;-71
2021/09/19 03:07:54;;;;;;;7.07;3.07;;;;;;;10.64;100.00;101155.78;5054283;28;20217;-71
2021/09/19 03:10:19;;;;;;;3.63;2.87;;;;;;;10.63;100.00;101148.72;5037665;28;20199;-71
2021/09/19 03:12:44;;;;;;;6.73;3.50;;;;;;;10.59;100.00;101141.81;5054325;28;20225;-71
2021/09/19 03:15:12;;;;;;;3.87;3.10;;;;;;;10.57;100.00;101143.69;5072953;28;20203;-71
2021/09/19 03:17:37;;;;;;;4.87;3.43;;;;;;;10.62;100.00;101150.53;5072275;28;20280;-71
2021/09/19 03:20:07;;;;;;;6.70;3.13;;;;;;;10.55;100.00;101142.91;5037644;28;20304;-71
2021/09/19 03:22:33;;;;;;;9.27;3.47;;;;;;;10.54;100.00;101141.16;5054955;28;20659;-70
2021/09/19 03:24:58;;;;;;;5.67;2.77;;;;;;;10.52;100.00;101151.91;5076617;28;20167;-71
2021/09/19 03:27:23;;;;;;;4.47;2.70;;;;;;;10.51;100.00;101146.66;5067618;28;20183;-71
2021/09/19 03:29:49;;;;;;;5.63;3.40;;;;;;;10.48;100.00;101141.47;5091659;28;20201;-70
2021/09/19 03:32:14;;;;;;;7.40;3.00;;;;;;;10.47;100.00;101142.41;5089959;28;20183;-71
2021/09/19 03:34:39;;;;;;;4.30;3.23;;;;;;;10.44;100.00;101134.56;5088772;28;20199;-71
2021/09/19 03:37:05;;;;;;;6.13;3.37;;;;;;;10.46;100.00;101143.34;5071306;28;20167;-71
2021/09/19 03:39:30;;;;;;;4.10;2.83;;;;;;;10.43;100.00;101138.16;5082301;28;20209;-71
2021/09/19 03:41:55;;;;;;;5.93;3.50;;;;;;;10.43;100.00;101138.16;5075899;28;20214;-70
2021/09/19 03:44:20;;;;;;;6.23;3.00;;;;;;;10.38;100.00;101141.00;5076209;28;20202;-70
2021/09/19 03:46:46;;;;;;;6.90;3.27;;;;;;;10.43;100.00;101135.50;5057822;28;20167;-70
2021/09/19 03:49:11;;;;;;;5.73;3.53;;;;;;;10.46;100.00;101138.88;5075450;28;20203;-71
2021/09/19 03:51:37;;;;;;;5.63;3.40;;;;;;;10.50;100.00;101144.94;5057741;28;20666;-69
2021/09/19 03:54:02;;;;;;;5.13;3.33;;;;;;;10.51;100.00;101136.84;5075213;28;20297;-70
2021/09/19 03:56:28;;;;;;;7.40;3.10;;;;;;;10.48;100.00;101146.81;5075430;28;20632;-71
2021/09/19 03:58:53;;;;;;;6.60;3.50;;;;;;;10.43;100.00;101148.84;5075204;28;20254;-70
2021/09/19 04:01:18;;;;;;;3.73;3.00;;;;;;;10.41;100.00;101154.25;5075111;28;20182;-71
2021/09/19 04:03:43;;;;;;;5.83;3.23;;;;;;;10.46;100.00;101143.34;5074975;28;20175;-69
2021/09/19 04:06:09;;;;;;;9.27;3.33;;;;;;;10.42;100.00;101147.97;5075024;28;20189;-70
2021/09/19 04:08:34;;;;;;;7.00;3.60;;;;;;;10.46;100.00;101151.34;5057153;28;20178;-71
2021/09/19 04:11:00;;;;;;;4.53;3.40;;;;;;;10.46;100.00;101144.22;5056986;28;20728;-70
2021/09/19 04:13:25;;;;;;;5.80;3.37;;;;;;;10.51;100.00;101152.00;5075013;28;20209;-71
2021/09/19 04:15:50;;;;;;;5.77;3.40;;;;;;;10.48;100.00;101147.66;5057365;28;20529;-70
2021/09/19 04:18:17;;;;;;;4.63;3.27;;;;;;;10.46;100.00;101148.69;5075167;28;20694;-70
2021/09/19 04:20:43;;;;;;;6.67;3.60;;;;;;;10.44;100.00;101153.22;5074771;28;20209;-70
2021/09/19 04:23:08;;;;;;;7.83;3.63;;;;;;;10.47;100.00;101151.28;5074760;28;20631;-69
2021/09/19 04:25:33;;;;;;;8.37;2.93;;;;;;;10.42;100.00;101153.31;5074950;28;20167;-69
2021/09/19 04:27:58;;;;;;;10.47;3.90;;;;;;;10.48;100.00;101169.03;5075358;28;20186;-70
2021/09/19 04:30:24;;;;;;;4.63;3.13;;;;;;;10.52;100.00;101167.94;5074765;28;20191;-69
2021/09/19 04:32:49;;;;;;;7.80;3.50;;;;;;;10.46;100.00;101156.69;5057045;28;20175;-69
2021/09/19 04:35:14;;;;;;;6.47;3.30;;;;;;;10.49;100.00;101168.09;5074287;28;20599;-69
2021/09/19 04:37:40;;;;;;;7.03;3.67;;;;;;;10.49;100.00;101164.53;5074783;28;20175;-70
2021/09/19 04:40:06;;;;;;;7.20;3.40;;;;;;;10.49;100.00;101168.09;5074926;28;20223;-69
2021/09/19 04:42:32;;;;;;;7.60;3.70;;;;;;;10.47;100.00;101171.75;5074448;28;20211;-70
2021/09/19 04:44:57;;;;;;;5.13;3.20;;;;;;;10.46;100.00;101164.69;5074596;28;20179;-69
2021/09/19 04:47:22;;;;;;;4.00;2.83;;;;;;;10.43;100.00;101170.19;5056561;28;20174;-69
2021/09/19 04:49:48;;;;;;;6.33;3.43;;;;;;;10.44;100.00;101171.91;5074477;28;20729;-70
2021/09/19 04:52:13;;;;;;;4.70;3.20;;;;;;;10.39;100.00;101165.91;5074295;28;20259;-70
2021/09/19 04:54:38;;;;;;;8.23;3.40;;;;;;;10.37;100.00;101160.63;5056289;28;20751;-70
2021/09/19 04:57:04;;;;;;;4.07;2.80;;;;;;;10.41;100.00;101164.91;5056358;28;20171;-70
2021/09/19 04:59:29;;;;;;;5.10;3.37;;;;;;;10.42;100.00;101165.78;5056498;28;20687;-70
2021/09/19 05:01:54;;;;;;;5.80;3.13;;;;;;;10.44;100.00;101167.44;5074110;28;20179;-70
2021/09/19 05:04:19;;;;;;;6.63;3.20;;;;;;;10.44;100.00;101167.44;5056342;28;20198;-70
2021/09/19 05:06:45;;;;;;;6.10;3.60;;;;;;;10.42;100.00;101171.13;5074090;28;20202;-70
2021/09/19 05:09:10;;;;;;;6.37;3.20;;;;;;;10.42;100.00;101168.44;5056048;28;20194;-70
2021/09/19 05:11:36;;;;;;;5.73;3.37;;;;;;;10.42;100.00;101173.78;5056328;28;20220;-70
2021/09/19 05:14:01;;;;;;;4.93;2.97;;;;;;;10.50;100.00;101171.63;5073867;28;20185;-70
2021/09/19 05:16:27;;;;;;;7.90;3.30;;;;;;;10.43;100.00;101168.38;5073830;28;20178;-69
2021/09/19 05:18:54;;;;;;;7.63;3.57;;;;;;;10.45;100.00;101174.50;5055854;28;20171;-70
2021/09/19 05:21:19;;;;;;;4.83;2.97;;;;;;;10.49;100.00;101183.22;5056121;28;20181;-70
2021/09/19 05:23:45;;;;;;;4.17;2.80;;;;;;;10.48;100.00;101178.84;5074473;28;20179;-68
2021/09/19 05:26:10;;;;;;;7.37;3.70;;;;;;;10.48;100.00;101168.16;5056409;28;20225;-70
2021/09/19 05:28:35;;;;;;;8.07;3.33;;;;;;;10.44;100.00;101179.91;5056375;28;20171;-70
2021/09/19 05:31:01;;;;;;;6.80;3.07;;;;;;;10.49;100.00;101173.41;5056064;28;20529;-70
2021/09/19 05:33:26;;;;;;;4.50;2.97;;;;;;;10.46;100.00;101178.91;5074224;28;20174;-71
2021/09/19 05:35:51;;;;;;;4.80;3.07;;;;;;;10.49;100.00;101183.22;5074062;28;20206;-70
2021/09/19 05:38:18;;;;;;;4.57;3.20;;;;;;;10.43;100.00;101180.84;5056175;28;20175;-71
2021/09/19 05:40:44;;;;;;;6.77;3.30;;;;;;;10.45;100.00;101184.31;5056135;28;20221;-71
2021/09/19 05:43:09;;;;;;;4.57;2.67;;;;;;;10.53;100.00;101176.81;5074514;28;20186;-71
2021/09/19 05:45:34;;;;;;;7.37;3.20;;;;;;;10.46;100.00;101176.22;5073498;28;20635;-71
2021/09/19 05:48:00;;;;;;;6.27;2.93;;;;;;;10.56;100.00;101177.53;5074608;28;20179;-71
2021/09/19 05:50:25;;;;;;;8.87;3.03;;;;;;;10.50;100.00;101179.63;5056403;28;20214;-71
2021/09/19 05:52:51;;;;;;;7.40;3.10;;;;;;;10.56;100.00;101179.31;5056585;28;20624;-70
2021/09/19 05:55:16;;;;;;;4.47;3.00;;;;;;;10.54;100.00;101178.53;5074541;28;20550;-71
2021/09/19 05:57:42;;;;;;;7.43;2.77;;;;;;;10.54;100.00;101179.41;5056213;28;20179;-71
2021/09/19 06:00:08;;;;;;;6.70;3.07;;;;;;;10.53;100.00;101180.34;5074048;28;20199;-71
2021/09/19 06:02:33;;;;;;;5.63;2.90;;;;;;;10.52;100.00;101183.09;5058090;28;20182;-72
2021/09/19 06:04:58;;;;;;;4.83;2.97;;;;;;;10.52;100.00;101189.28;5074006;28;20629;-71
2021/09/19 06:07:24;;;;;;;6.40;3.53;;;;;;;10.56;100.00;101190.00;5055957;28;20183;-70
2021/09/19 06:09:49;;;;;;;6.07;2.93;;;;;;;10.54;100.00;101189.22;5055316;28;20599;-71
2021/09/19 06:12:15;;;;;;;4.60;3.00;;;;;;;10.58;100.00;101180.13;5055235;28;20548;-71
2021/09/19 06:14:40;;;;;;;7.63;3.00;;;;;;;10.57;100.00;101194.41;5073343;28;20194;-72
2021/09/19 06:17:05;;;;;;;7.00;3.13;;;;;;;10.58;100.00;101191.66;5073080;28;20233;-71
2021/09/19 06:19:30;;;;;;;5.40;2.83;;;;;;;10.60;100.00;101199.59;5055174;28;20629;-72
2021/09/19 06:21:59;;;;;;;4.27;2.80;;;;;;;10.54;100.00;101195.41;5038976;28;20171;-72
2021/09/19 06:24:25;;;;;;;5.87;2.93;;;;;;;10.74;100.00;101189.13;5055650;28;20193;-71
2021/09/19 06:26:50;;;;;;;5.67;2.73;;;;;;;10.62;100.00;101187.91;5072961;28;20182;-72
2021/09/19 06:29:16;;;;;;;4.00;2.80;;;;;;;10.58;100.00;101191.66;5072794;28;20556;-71
2021/09/19 06:31:41;;;;;;;7.97;3.67;;;;;;;10.59;100.00;101189.84;5055219;28;20178;-73
2021/09/19 06:34:06;;;;;;;5.80;3.10;;;;;;;10.61;100.00;101195.97;5072674;28;20178;-75
2021/09/19 06:36:31;;;;;;;5.83;3.13;;;;;;;10.57;100.00;101189.06;5054950;28;20207;-75
2021/09/19 06:38:57;;;;;;;6.10;3.30;;;;;;;10.58;100.00;101196.13;5073060;28;20583;-75
2021/09/19 06:41:22;;;;;;;7.50;3.20;;;;;;;10.74;100.00;101196.25;5072790;28;20579;-75
2021/09/19 06:43:47;;;;;;;5.37;3.00;;;;;;;10.71;100.00;101194.59;5073048;28;20171;-75
2021/09/19 06:46:13;;;;;;;5.57;3.10;;;;;;;10.81;100.00;101187.91;5055686;28;20173;-74
2021/09/19 06:48:38;;;;;;;5.27;3.20;;;;;;;10.92;100.00;101188.25;5072670;28;20582;-73
2021/09/19 06:51:03;;;;;;;7.53;3.50;;;;;;;10.98;100.00;101188.88;5072604;28;20696;-74
2021/09/19 06:53:28;;;;;;;6.47;3.17;;;;;;;10.85;100.00;101188.63;5054869;28;20175;-73
2021/09/19 06:55:54;;;;;;;5.03;2.63;;;;;;;10.86;100.00;101188.53;5054624;28;20222;-73
2021/09/19 06:58:19;;;;;;;6.03;3.17;;;;;;;10.84;100.00;101186.88;5058255;28;20539;-75
2021/09/19 07:00:44;;;;;;;5.33;2.97;;;;;;;10.91;100.00;101183.84;5076630;28;20209;-73
2021/09/19 07:03:10;;;;;;;5.73;2.93;;;;;;;10.89;100.00;101185.72;5076316;28;20216;-74
2021/09/19 07:05:35;;;;;;;9.57;3.50;;;;;;;10.87;100.00;101187.59;5076739;28;20197;-75
2021/09/19 07:08:00;;;;;;;4.97;3.10;;;;;;;10.84;100.00;101187.75;5058599;28;20208;-72
2021/09/19 07:10:26;;;;;;;6.03;3.20;;;;;;;10.90;100.00;101189.25;5058781;28;20195;-73
2021/09/19 07:12:51;;;;;;;6.23;2.90;;;;;;;10.90;100.00;101191.94;5076407;28;20171;-72
2021/09/19 07:15:16;;;;;;;5.37;3.47;;;;;;;10.96;100.00;101191.63;5076306;28;20309;-73
2021/09/19 07:17:41;;;;;;;4.73;2.60;;;;;;;10.96;100.00;101194.28;5058609;28;20171;-73
2021/09/19 07:20:07;;;;;;;4.37;2.80;;;;;;;10.94;100.00;101188.16;5076287;28;20231;-73
2021/09/19 07:22:32;;;;;;;4.93;2.40;;;;;;;10.92;100.00;101193.59;5058594;28;20181;-71
2021/09/19 07:24:58;;;;;;;4.63;2.80;;;;;;;10.94;100.00;101189.03;5041687;28;20178;-71
2021/09/19 07:27:23;;;;;;;6.00;3.03;;;;;;;11.07;100.00;101199.97;5076295;28;20221;-72
2021/09/19 07:29:48;;;;;;;5.93;2.50;;;;;;;11.14;100.00;101201.38;5058553;28;20198;-74
2021/09/19 07:32:14;;;;;;;4.13;2.60;;;;;;;11.21;100.00;101199.31;5058134;28;20229;-73
2021/09/19 07:34:40;;;;;;;5.10;3.20;;;;;;;11.28;100.00;101200.72;5057875;28;20195;-72
2021/09/19 07:37:06;;;;;;;4.83;2.70;;;;;;;11.32;100.00;101196.97;5075796;28;20540;-72
2021/09/19 07:39:32;;;;;;;6.93;2.60;;;;;;;11.37;100.00;101196.72;5058134;28;20190;-73
2021/09/19 07:41:57;;;;;;;4.10;2.50;;;;;;;11.43;100.00;101185.72;5075732;28;20668;-73
2021/09/19 07:44:23;;;;;;;3.83;2.60;;;;;;;11.48;100.00;101167.63;5075772;28;20167;-73
2021/09/19 07:46:49;;;;;;;5.03;2.77;;;;;;;11.45;100.00;101159.78;5075832;28;20174;-72
2021/09/19 07:49:16;;;;;;;6.23;2.73;;;;;;;11.52;100.00;101164.75;5057676;28;20203;-72
2021/09/19 07:51:42;;;;;;;6.80;2.50;;;;;;;11.50;100.00;101166.59;5075688;28;20151;-72
2021/09/19 07:54:10;;;;;;;6.77;2.57;;;;;;;11.46;100.00;101172.19;5057941;28;20186;-72
2021/09/19 07:56:36;;;;;;;9.53;2.60;;;;;;;11.51;100.00;101167.47;5041290;28;20178;-72
2021/09/19 07:59:01;;;;;;;4.50;2.60;;;;;;;11.52;100.00;101154.06;5041145;28;20198;-72
2021/09/19 08:01:26;;;;;;;4.67;2.50;;;;;;;11.58;100.00;101158.22;5057841;28;20266;-74
2021/09/19 08:03:52;;;;;;;7.13;2.90;;;;;;;11.55;100.00;101169.94;5076944;28;20179;-72
2021/09/19 08:06:19;;;;;;;5.77;3.00;;;;;;;11.63;100.00;101174.03;5058471;28;20571;-74
2021/09/19 08:08:45;;;;;;;8.33;3.30;;;;;;;11.53;100.00;101165.63;5075312;28;20277;-73
2021/09/19 08:11:10;;;;;;;9.13;3.83;;;;;;;11.58;100.00;101169.78;5076452;28;20659;-73
2021/09/19 08:13:36;;;;;;;4.33;2.77;;;;;;;11.53;100.00;101162.94;5082099;28;20175;-71
2021/09/19 08:16:01;;;;;;;5.17;2.50;;;;;;;11.48;100.00;101165.81;5075758;28;20194;-73
2021/09/19 08:18:27;;;;;;;4.97;2.53;;;;;;;11.56;100.00;101158.31;5075403;28;20557;-72
2021/09/19 08:20:52;;;;;;;4.43;2.67;;;;;;;11.63;100.00;101157.97;5075417;28;20310;-72
2021/09/19 08:23:17;;;;;;;5.07;2.80;;;;;;;11.69;100.00;101155.84;5075580;28;20178;-72
2021/09/19 08:25:43;;;;;;;4.87;2.63;;;;;;;11.71;99.71;101158.44;5074946;28;20163;-71
2021/09/19 08:28:08;;;;;;;8.33;2.40;;;;;;;11.80;100.00;101174.03;5057713;28;20206;-73
2021/09/19 08:30:34;;;;;;;6.40;3.00;;;;;;;11.91;100.00;101185.03;5074989;28;20187;-72
2021/09/19 08:32:59;;;;;;;5.73;2.57;;;;;;;12.01;98.91;101172.03;5075236;28;20253;-71
2021/09/19 08:35:24;;;;;;;9.53;3.97;;;;;;;11.95;99.01;101167.88;5057064;28;20564;-72
2021/09/19 08:37:50;;;;;;;7.13;3.60;;;;;;;11.97;98.78;101167.78;5074664;28;20202;-72
2021/09/19 08:40:15;;;;;;;5.47;3.50;;;;;;;11.99;98.45;101160.56;5074516;28;20201;-72
2021/09/19 08:42:41;;;;;;;5.87;3.63;;;;;;;12.00;98.40;101165.81;5074704;28;20249;-72
2021/09/19 08:45:08;;;;;;;6.47;2.50;;;;;;;11.91;96.30;101142.25;5074443;28;20207;-72
2021/09/19 08:47:35;;;;;;;7.37;2.90;;;;;;;11.88;96.05;101137.03;5074804;28;20197;-73
2021/09/19 08:50:04;;;;;;;3.60;2.17;;;;;;;11.92;95.34;101135.09;5075930;28;20206;-73
2021/09/19 08:52:29;;;;;;;4.57;2.30;;;;;;;11.83;95.01;101139.09;5056811;28;20232;-72
2021/09/19 08:54:55;;;;;;;5.43;2.47;;;;;;;11.95;94.41;101141.13;5074434;28;20591;-72
2021/09/19 08:57:20;;;;;;;3.47;2.30;;;;;;;11.98;93.94;101132.94;5074570;28;20171;-71
2021/09/19 08:59:47;;;;;;;4.77;2.40;;;;;;;12.14;93.40;101140.97;5074182;28;20240;-72
2021/09/19 09:02:14;;;;;;;5.83;1.80;;;;;;;12.13;92.53;101116.03;5056910;28;20162;-72
2021/09/19 09:04:40;;;;;;;6.23;2.10;;;;;;;12.21;92.25;101124.50;5074473;28;20217;-73
2021/09/19 09:07:05;;;;;;;4.37;2.20;;;;;;;12.36;91.73;101119.28;5074187;28;20636;-72
2021/09/19 09:09:31;;;;;;;3.33;1.97;;;;;;;12.39;91.01;101114.59;5074059;28;20194;-73
2021/09/19 09:12:14;;;;;;;3.37;2.00;;;;;;;12.38;90.38;101112.03;5074156;28;20179;-73
2021/09/19 09:14:43;;;;;;;5.07;2.47;;;;;;;12.55;90.96;101133.34;5074286;28;20194;-73
2021/09/19 09:17:10;;;;;;;2.67;1.90;;;;;;;12.53;89.03;101101.28;5056780;28;20163;-72
2021/09/19 09:19:40;;;;;;;5.10;2.60;;;;;;;12.58;89.38;101125.13;5073710;28;20195;-72
2021/09/19 09:22:05;;;;;;;9.60;2.20;;;;;;;12.59;87.32;101093.88;5074153;28;20178;-73
2021/09/19 09:24:30;;;;;;;3.57;1.90;;;;;;;12.71;86.32;101104.75;5055821;28;20170;-73
2021/09/19 09:26:56;;;;;;;2.70;2.00;;;;;;;12.58;86.88;101111.75;5075505;28;20171;-73
2021/09/19 09:29:21;;;;;;;4.20;2.07;;;;;;;12.60;86.42;101101.81;5056051;28;20203;-73
2021/09/19 09:31:47;;;;;;;5.20;1.80;;;;;;;12.55;86.62;101108.38;5057098;28;20171;-72
2021/09/19 09:34:15;;;;;;;4.57;2.00;;;;;;;12.49;86.93;101110.47;5058718;28;20175;-71
2021/09/19 09:36:52;;;;;;;5.33;2.10;;;;;;;12.58;87.55;101130.47;5059002;28;20535;-71
2021/09/19 09:39:25;;;;;;;4.87;2.27;;;;;;;12.59;86.08;101104.56;5055880;28;20191;-71
2021/09/19 09:41:51;;;;;;;4.97;1.83;;;;;;;12.60;86.33;101109.84;5074404;28;20181;-74
2021/09/19 09:44:32;;;;;;;3.23;1.77;;;;;;;12.86;85.56;101104.81;5075655;28;20624;-72
2021/09/19 09:47:02;;;;;;;2.90;2.00;;;;;;;12.93;84.08;101098.13;5073993;28;20639;-72
2021/09/19 09:49:40;;;;;;;3.17;1.80;;;;;;;12.97;83.31;101083.59;5038968;28;20198;-74
2021/09/19 09:52:21;;;;;;;3.10;1.87;;;;;;;13.21;82.39;101090.22;5055554;28;20178;-72
2021/09/19 09:54:57;;;;;;;3.33;2.00;;;;;;;13.63;80.94;101100.19;5073804;28;20186;-72
2021/09/19 09:57:31;;;;;;;3.57;1.97;;;;;;;13.88;81.08;101110.28;5075848;28;20174;-72
2021/09/19 09:59:58;;;;;;;4.43;1.53;;;;;;;13.85;79.76;101082.78;5073576;28;20194;-73
2021/09/19 10:02:24;;;;;;;3.13;2.13;;;;;;;13.84;78.70;101073.00;5055353;28;20174;-72
2021/09/19 10:04:51;;;;;;;3.43;2.03;;;;;;;14.05;79.96;101109.19;5056206;28;20179;-73
2021/09/19 10:07:17;;;;;;;3.23;1.77;;;;;;;14.34;77.75;101086.72;5055900;28;20170;-74
2021/09/19 10:09:43;;;;;;;3.43;1.90;;;;;;;14.33;78.02;101084.16;5072986;28;20605;-72
2021/09/19 10:12:09;;;;;;;2.67;1.67;;;;;;;14.15;79.02;101102.31;5055457;28;20679;-72
2021/09/19 10:14:34;;;;;;;3.77;1.93;;;;;;;14.55;77.92;101087.22;5073183;28;20339;-73
2021/09/19 10:16:59;;;;;;;5.10;1.90;;;;;;;14.36;76.55;101054.41;5056072;28;20175;-73
2021/09/19 10:19:25;;;;;;;4.27;1.80;;;;;;;14.30;74.89;101042.25;5056978;28;20205;-74
2021/09/19 10:21:52;;;;;;;4.33;1.80;;;;;;;14.88;73.48;101053.72;5056657;28;20174;-72
2021/09/19 10:24:17;;;;;;;3.10;1.77;;;;;;;15.05;72.58;101053.41;5055643;28;20743;-72
2021/09/19 10:26:54;;;;;;;3.43;2.07;;;;;;;14.94;71.72;101038.03;5055272;28;20203;-73
2021/09/19 10:29:20;;;;;;;4.27;1.80;;;;;;;14.93;72.08;101059.63;5055360;28;20236;-72
2021/09/19 10:31:46;;;;;;;3.63;1.70;;;;;;;14.68;71.46;101036.22;5073835;28;20179;-72
2021/09/19 10:34:24;;;;;;;5.57;1.80;;;;;;;14.29;72.00;101031.63;5074111;28;20175;-72
2021/09/19 10:36:51;;;;;;;3.03;1.43;;;;;;;14.77;71.17;101034.72;5073111;28;20171;-67
2021/09/19 10:39:25;;;;;;;5.83;1.67;;;;;;;15.19;69.94;101042.56;5072891;28;20195;-67
2021/09/19 10:42:19;;;;;;;1.97;1.20;;;;;;;15.53;68.42;101042.91;5073247;28;20171;-67
2021/09/19 10:44:44;;;;;;;4.70;1.57;;;;;;;15.27;68.45;101024.09;5073266;28;20154;-67
2021/09/19 10:47:10;;;;;;;3.27;2.10;;;;;;;14.50;71.39;101057.13;5072820;28;20179;-68
2021/09/19 10:49:35;;;;;;;4.33;1.77;;;;;;;14.32;73.28;101082.44;5072715;28;20234;-66
2021/09/19 10:52:00;;;;;;;3.47;1.77;;;;;;;14.61;72.39;101083.25;5072963;28;20159;-67
2021/09/19 10:54:44;;;;;;;3.87;1.77;;;;;;;14.23;74.61;101099.13;5055458;28;20567;-69
2021/09/19 10:57:29;;;;;;;2.90;1.40;;;;;;;14.08;72.60;101049.97;5072914;28;20182;-68
2021/09/19 11:00:17;;;;;;;1.93;1.03;;;;;;;13.96;71.57;101034.66;5072640;28;20194;-67
2021/09/19 11:03:00;;;;;;;2.03;1.50;;;;;;;14.42;70.41;101050.47;5055061;28;20510;-67
2021/09/19 11:05:35;;;;;;;3.40;1.67;;;;;;;14.47;70.95;101061.78;5073299;28;20289;-74
2021/09/19 11:08:10;;;;;;;2.80;1.00;;;;;;;14.66;69.24;101025.56;5075399;28;20193;-76
2021/09/19 11:10:44;;;;;;;2.27;1.07;;;;;;;14.49;67.64;101007.00;5056777;28;20756;-75
2021/09/19 11:13:26;;;;;;;6.87;1.13;;;;;;;14.79;68.15;101032.81;5073461;28;20182;-74
2021/09/19 11:16:03;;;;;;;2.07;1.20;;;;;;;15.08;67.88;101046.97;5072963;28;20667;-74
2021/09/19 11:18:28;;;;;;;5.23;1.13;;;;;;;15.14;66.59;101020.50;5074960;28;20178;-74